createdAt,value
2019-05-02T00:01:52.554Z,94783.47
2019-05-02T00:04:22.662Z,94776.28
2019-05-02T00:07:14.639Z,94771.69
2019-05-02T00:09:48.472Z,94773.72
2019-05-02T00:12:18.344Z,94775.99
2019-05-02T00:14:48.341Z,94769.69
2019-05-02T00:17:20.164Z,94768.39
2019-05-02T00:19:51.434Z,94762.03
2019-05-02T00:22:22.629Z,94764.99
2019-05-02T00:24:52.518Z,94753.17
2019-05-02T00:27:22.600Z,94753.65
2019-05-02T00:29:58.098Z,94753.48
2019-05-02T00:32:24.347Z,94753.22
2019-05-02T00:34:54.380Z,94751.34
2019-05-02T00:37:26.555Z,94749.62
2019-05-02T00:39:56.066Z,94744.25
2019-05-02T00:42:26.121Z,94750.90
2019-05-02T00:44:56.108Z,94745.08
2019-05-02T00:47:42.196Z,94741.03
2019-05-02T00:50:12.514Z,94738.09
2019-05-02T00:52:43.559Z,94731.98
2019-05-02T00:55:13.649Z,94734.84
2019-05-02T00:57:43.704Z,94729.23
2019-05-02T01:00:18.372Z,94725.34
2019-05-02T01:02:55.214Z,94723.22
2019-05-02T01:05:25.231Z,94724.61
2019-05-02T01:07:55.889Z,94722.23
2019-05-02T01:10:27.010Z,94722.81
2019-05-02T01:12:56.921Z,94721.15
2019-05-02T01:15:26.839Z,94719.74
2019-05-02T01:17:56.787Z,94709.84
2019-05-02T01:20:27.923Z,94718.39
2019-05-02T01:22:58.711Z,94720.07
2019-05-02T01:25:28.612Z,94715.30
2019-05-02T01:28:17.532Z,94714.22
2019-05-02T01:31:06.656Z,94713.05
2019-05-02T01:33:46.318Z,94710.58
2019-05-02T01:36:27.120Z,94711.75
2019-05-02T01:38:56.969Z,94711.08
2019-05-02T01:41:29.200Z,94709.64
2019-05-02T01:44:00.054Z,94709.25
2019-05-02T01:46:30.168Z,94703.69
2019-05-02T01:49:00.078Z,94676.16
2019-05-02T01:51:31.027Z,94704.13
2019-05-02T01:54:05.071Z,94701.47
2019-05-02T01:56:33.058Z,94698.52
2019-05-02T01:59:04.214Z,94699.45
2019-05-02T02:01:34.345Z,94697.67
2019-05-02T02:04:04.371Z,94694.63
2019-05-02T02:06:34.287Z,94694.09
2019-05-02T02:09:08.354Z,94696.55
2019-05-02T02:11:37.587Z,94697.34
2019-05-02T02:14:12.691Z,94700.68
2019-05-02T02:16:40.520Z,94707.49
2019-05-02T02:19:29.665Z,94696.95
2019-05-02T02:22:12.490Z,94691.83
2019-05-02T02:24:45.684Z,94694.09
2019-05-02T02:27:19.891Z,94693.70
2019-05-02T02:29:47.320Z,94694.08
2019-05-02T02:32:19.984Z,94695.66
2019-05-02T02:34:48.856Z,94691.88
2019-05-02T02:37:18.682Z,94691.92
2019-05-02T02:39:54.144Z,94694.00
2019-05-02T02:42:24.930Z,94691.53
2019-05-02T02:44:58.704Z,94691.92
2019-05-02T02:47:28.635Z,94691.83
2019-05-02T02:50:02.785Z,94688.20
2019-05-02T02:52:30.227Z,94685.58
2019-05-02T02:55:00.358Z,94687.25
2019-05-02T02:57:30.267Z,94684.20
2019-05-02T03:00:07.609Z,94684.69
2019-05-02T03:02:33.059Z,94685.97
2019-05-02T03:05:03.091Z,94686.27
2019-05-02T03:07:33.027Z,94684.69
2019-05-02T03:10:06.236Z,94679.66
2019-05-02T03:12:49.164Z,94676.31
2019-05-02T03:15:20.851Z,94668.53
2019-05-02T03:17:51.559Z,94679.27
2019-05-02T03:20:21.577Z,94673.96
2019-05-02T03:22:51.756Z,94679.59
2019-05-02T03:25:25.146Z,94676.64
2019-05-02T03:27:53.598Z,94671.92
2019-05-02T03:30:31.511Z,94672.22
2019-05-02T03:33:06.467Z,94676.05
2019-05-02T03:35:41.838Z,94672.12
2019-05-02T03:37:59.073Z,94670.25
2019-05-02T03:40:32.312Z,94679.20
2019-05-02T03:43:01.358Z,94677.33
2019-05-02T03:45:32.042Z,94666.80
2019-05-02T03:48:03.040Z,94663.16
2019-05-02T03:50:35.387Z,94666.92
2019-05-02T03:53:05.491Z,94666.11
2019-05-02T03:55:35.613Z,94666.02
2019-05-02T03:58:12.816Z,94669.86
2019-05-02T04:00:37.285Z,94665.72
2019-05-02T04:03:07.573Z,94668.77
2019-05-02T04:05:40.295Z,94663.95
2019-05-02T04:08:20.035Z,94659.13
2019-05-02T04:11:22.677Z,94668.89
2019-05-02T04:13:54.307Z,94667.22
2019-05-02T04:16:28.844Z,94668.67
2019-05-02T04:19:03.259Z,94669.46
2019-05-02T04:21:34.453Z,94665.16
2019-05-02T04:24:13.600Z,94669.98
2019-05-02T04:26:37.154Z,94672.02
2019-05-02T04:29:07.069Z,94675.86
2019-05-02T04:31:36.911Z,94677.53
2019-05-02T04:34:13.564Z,94675.33
2019-05-02T04:36:38.334Z,94677.11
2019-05-02T04:39:12.604Z,94680.58
2019-05-02T04:41:42.506Z,94679.89
2019-05-02T04:44:11.629Z,94681.17
2019-05-02T04:46:41.540Z,94679.59
2019-05-02T04:49:11.420Z,94679.47
2019-05-02T04:51:50.875Z,94677.85
2019-05-02T04:54:21.827Z,94678.38
2019-05-02T04:56:51.236Z,94681.59
2019-05-02T04:59:22.686Z,94682.46
2019-05-02T05:01:57.409Z,94682.80
2019-05-02T05:04:21.634Z,94686.82
2019-05-02T05:06:56.192Z,94679.84
2019-05-02T05:09:23.341Z,94686.44
2019-05-02T05:11:53.895Z,94681.71
2019-05-02T05:14:25.027Z,94681.30
2019-05-02T05:16:56.112Z,94690.47
2019-05-02T05:19:32.480Z,94686.83
2019-05-02T05:22:04.513Z,94682.80
2019-05-02T05:24:58.425Z,94683.38
2019-05-02T05:27:28.504Z,94676.77
2019-05-02T05:30:03.365Z,94683.05
2019-05-02T05:32:30.136Z,94678.08
2019-05-02T05:35:03.504Z,94678.83
2019-05-02T05:37:33.118Z,94674.69
2019-05-02T05:40:04.263Z,94674.59
2019-05-02T05:42:34.183Z,94686.14
2019-05-02T05:45:11.132Z,94688.20
2019-05-02T05:47:37.802Z,94676.44
2019-05-02T05:50:08.350Z,94684.38
2019-05-02T05:52:42.261Z,94687.98
2019-05-02T05:55:12.699Z,94679.63
2019-05-02T05:57:41.880Z,94682.38
2019-05-02T06:00:18.850Z,94679.88
2019-05-02T06:02:53.931Z,94685.52
2019-05-02T06:05:17.474Z,94679.16
2019-05-02T06:07:47.537Z,94680.24
2019-05-02T06:10:17.418Z,94683.97
2019-05-02T06:12:47.394Z,94677.52
2019-05-02T06:15:17.406Z,94683.67
2019-05-02T06:17:47.264Z,94687.00
2019-05-02T06:20:17.230Z,94684.07
2019-05-02T06:22:47.172Z,94689.52
2019-05-02T06:25:17.600Z,94685.49
2019-05-02T06:27:47.476Z,94684.75
2019-05-02T06:30:17.568Z,94692.14
2019-05-02T06:32:50.049Z,94686.05
2019-05-02T06:35:21.083Z,94683.81
2019-05-02T06:37:51.980Z,94683.28
2019-05-02T06:40:21.979Z,94686.88
2019-05-02T06:42:51.887Z,94685.30
2019-05-02T06:45:22.066Z,94690.46
2019-05-02T06:47:52.018Z,94687.69
2019-05-02T06:50:24.646Z,94689.80
2019-05-02T06:52:53.636Z,94678.95
2019-05-02T06:55:23.656Z,94681.19
2019-05-02T06:57:57.097Z,94680.84
2019-05-02T07:00:35.627Z,94681.17
2019-05-02T07:02:58.644Z,94677.81
2019-05-02T07:05:28.595Z,94673.44
2019-05-02T07:07:58.591Z,94680.42
2019-05-02T07:10:37.828Z,94679.10
2019-05-02T07:13:10.111Z,94677.77
2019-05-02T07:15:57.409Z,94678.47
2019-05-02T07:18:29.050Z,94680.41
2019-05-02T07:20:58.962Z,94663.00
2019-05-02T07:23:28.997Z,94674.54
2019-05-02T07:26:00.351Z,94658.09
2019-05-02T07:28:30.637Z,94669.02
2019-05-02T07:31:00.575Z,94661.54
2019-05-02T07:33:32.433Z,94665.84
2019-05-02T07:36:02.055Z,94660.37
2019-05-02T07:38:32.126Z,94657.89
2019-05-02T07:41:02.140Z,94658.91
2019-05-02T07:43:32.095Z,94652.17
2019-05-02T07:46:02.130Z,94656.53
2019-05-02T07:48:32.168Z,94660.44
2019-05-02T07:51:02.022Z,94648.88
2019-05-02T07:53:32.021Z,94659.45
2019-05-02T07:56:02.381Z,94659.88
2019-05-02T07:58:33.362Z,94660.44
2019-05-02T08:01:03.390Z,94665.23
2019-05-02T08:03:34.747Z,94668.61
2019-05-02T08:06:04.839Z,94665.98
2019-05-02T08:08:36.378Z,94657.86
2019-05-02T08:11:06.852Z,94658.61
2019-05-02T08:13:39.142Z,94657.63
2019-05-02T08:16:09.179Z,94656.85
2019-05-02T08:18:39.154Z,94651.86
2019-05-02T08:21:09.130Z,94652.00
2019-05-02T08:23:39.148Z,94642.39
2019-05-02T08:26:09.098Z,94642.58
2019-05-02T08:28:47.013Z,94646.94
2019-05-02T08:31:19.080Z,94646.03
2019-05-02T08:33:48.175Z,94645.89
2019-05-02T08:36:18.170Z,94642.91
2019-05-02T08:38:48.957Z,94642.73
2019-05-02T08:41:20.283Z,94641.56
2019-05-02T08:43:51.399Z,94643.49
2019-05-02T08:46:21.320Z,94645.86
2019-05-02T08:48:51.166Z,94645.61
2019-05-02T08:51:21.123Z,94632.14
2019-05-02T08:53:52.138Z,94637.61
2019-05-02T08:56:22.895Z,94644.86
2019-05-02T08:58:52.912Z,94638.53
2019-05-02T09:01:34.530Z,94641.97
2019-05-02T09:03:56.679Z,94630.88
2019-05-02T09:06:26.095Z,94633.97
2019-05-02T09:08:56.018Z,94623.69
2019-05-02T09:11:26.953Z,94627.05
2019-05-02T09:13:56.945Z,94629.81
2019-05-02T09:16:29.068Z,94622.77
2019-05-02T09:18:58.520Z,94620.68
2019-05-02T09:21:34.170Z,94622.87
2019-05-02T09:24:02.360Z,94619.75
2019-05-02T09:26:36.183Z,94608.39
2019-05-02T09:29:05.389Z,94616.95
2019-05-02T09:31:36.872Z,94627.05
2019-05-02T09:34:07.210Z,94609.69
2019-05-02T09:36:38.239Z,94604.98
2019-05-02T09:39:09.413Z,94603.48
2019-05-02T09:41:39.399Z,94597.24
2019-05-02T09:44:14.592Z,94597.72
2019-05-02T09:46:42.794Z,94617.00
2019-05-02T09:49:16.343Z,94593.86
2019-05-02T09:51:45.648Z,94587.13
2019-05-02T09:54:16.121Z,94583.70
2019-05-02T09:56:45.967Z,94579.06
2019-05-02T09:59:27.702Z,94582.84
2019-05-02T10:01:49.624Z,94572.24
2019-05-02T10:04:19.625Z,94581.64
2019-05-02T10:06:49.620Z,94573.58
2019-05-02T10:09:24.316Z,94574.78
2019-05-02T10:11:52.477Z,94564.94
2019-05-02T10:14:22.854Z,94555.39
2019-05-02T10:16:53.174Z,94549.31
2019-05-02T10:19:25.888Z,94556.41
2019-05-02T10:21:56.392Z,94549.59
2019-05-02T10:24:26.483Z,94551.37
2019-05-02T10:27:04.038Z,94548.03
2019-05-02T10:29:29.902Z,94542.84
2019-05-02T10:32:01.771Z,94535.28
2019-05-02T10:34:33.073Z,94536.92
2019-05-02T10:37:03.316Z,94538.09
2019-05-02T10:39:37.723Z,94522.47
2019-05-02T10:42:04.991Z,94520.55
2019-05-02T10:44:36.600Z,94533.20
2019-05-02T10:47:06.698Z,94526.31
2019-05-02T10:49:42.775Z,94515.53
2019-05-02T10:52:12.734Z,94518.77
2019-05-02T10:54:42.729Z,94510.98
2019-05-02T10:57:12.803Z,94510.09
2019-05-02T10:59:42.862Z,94512.09
2019-05-02T11:02:32.743Z,94505.48
2019-05-02T11:05:08.621Z,94497.75
2019-05-02T11:07:38.618Z,94496.98
2019-05-02T11:10:08.725Z,94487.69
2019-05-02T11:12:56.150Z,94499.73
2019-05-02T11:15:44.505Z,94493.46
2019-05-02T11:18:14.993Z,94489.34
2019-05-02T11:20:44.928Z,94480.72
2019-05-02T11:23:14.867Z,94483.09
2019-05-02T11:25:44.940Z,94491.13
2019-05-02T11:28:14.928Z,94498.19
2019-05-02T11:30:45.822Z,94477.75
2019-05-02T11:33:15.655Z,94472.15
2019-05-02T11:35:48.937Z,94486.73
2019-05-02T11:38:46.331Z,94476.53
2019-05-02T11:40:48.857Z,94478.68
2019-05-02T11:43:18.806Z,94461.80
2019-05-02T11:45:48.742Z,94463.19
2019-05-02T11:48:19.832Z,94452.87
2019-05-02T11:50:52.113Z,94491.72
2019-05-02T11:53:26.994Z,94459.23
2019-05-02T11:55:53.333Z,94448.20
2019-05-02T11:58:24.342Z,94451.64
2019-05-02T12:00:54.599Z,94465.94
2019-05-02T12:03:42.365Z,94447.65
2019-05-02T12:06:19.132Z,94465.75
2019-05-02T12:08:49.191Z,94477.80
2019-05-02T12:11:17.705Z,94442.70
2019-05-02T12:13:52.883Z,94440.97
2019-05-02T12:16:19.413Z,94432.41
2019-05-02T12:18:49.415Z,94429.59
2019-05-02T12:21:19.431Z,94432.95
2019-05-02T12:23:52.524Z,94436.19
2019-05-02T12:26:22.294Z,94426.17
2019-05-02T12:28:52.794Z,94427.22
2019-05-02T12:31:32.639Z,94411.40
2019-05-02T12:34:05.112Z,94435.23
2019-05-02T12:36:35.114Z,94393.25
2019-05-02T12:39:06.665Z,94405.75
2019-05-02T12:41:37.301Z,94400.66
2019-05-02T12:44:07.328Z,94392.45
2019-05-02T12:46:37.314Z,94401.98
2019-05-02T12:49:07.301Z,94412.16
2019-05-02T12:51:37.297Z,94410.99
2019-05-02T12:54:07.275Z,94403.39
2019-05-02T12:56:37.135Z,94399.06
2019-05-02T12:59:07.264Z,94409.31
2019-05-02T13:01:37.186Z,94382.99
2019-05-02T13:04:08.839Z,94403.59
2019-05-02T13:06:38.786Z,94382.03
2019-05-02T13:09:12.579Z,94380.44
2019-05-02T13:12:10.371Z,94389.45
2019-05-02T13:14:42.240Z,94369.12
2019-05-02T13:17:12.128Z,94383.52
2019-05-02T13:19:55.378Z,94364.73
2019-05-02T13:22:32.509Z,94371.75
2019-05-02T13:25:05.798Z,94366.52
2019-05-02T13:27:43.485Z,94351.73
2019-05-02T13:30:12.390Z,94359.52
2019-05-02T13:32:48.017Z,94359.66
2019-05-02T13:35:27.240Z,94367.95
2019-05-02T13:38:02.471Z,94338.30
2019-05-02T13:40:42.528Z,94342.47
2019-05-02T13:43:12.805Z,94338.23
2019-05-02T13:46:12.580Z,94334.36
2019-05-02T13:48:43.037Z,94348.69
2019-05-02T13:51:13.010Z,94345.93
2019-05-02T13:53:57.874Z,94330.66
2019-05-02T13:56:46.872Z,94327.05
2019-05-02T13:59:17.230Z,94317.65
2019-05-02T14:01:49.026Z,94318.89
2019-05-02T14:04:19.302Z,94321.55
2019-05-02T14:06:49.295Z,94306.67
2019-05-02T14:09:37.194Z,94303.98
2019-05-02T14:12:26.510Z,94301.80
2019-05-02T14:14:56.367Z,94300.25
2019-05-02T14:17:26.363Z,94309.22
2019-05-02T14:20:07.874Z,94304.59
2019-05-02T14:22:29.620Z,94301.30
2019-05-02T14:25:01.744Z,94330.16
2019-05-02T14:27:32.069Z,94309.76
2019-05-02T14:30:02.584Z,94290.76
2019-05-02T14:32:33.040Z,94287.06
2019-05-02T14:35:27.822Z,94279.84
2019-05-02T14:38:13.972Z,94277.72
2019-05-02T14:41:04.023Z,94279.88
2019-05-02T14:43:53.874Z,94280.48
2019-05-02T14:46:33.516Z,94283.08
2019-05-02T14:48:59.276Z,94297.11
2019-05-02T14:51:29.274Z,94275.98
2019-05-02T14:54:03.618Z,94268.41
2019-05-02T14:56:47.760Z,94261.64
2019-05-02T14:59:19.747Z,94251.25
2019-05-02T15:01:52.841Z,94257.75
2019-05-02T15:04:22.898Z,94243.31
2019-05-02T15:06:52.910Z,94255.31
2019-05-02T15:09:26.716Z,94256.67
2019-05-02T15:12:02.922Z,94248.60
2019-05-02T15:14:34.635Z,94251.06
2019-05-02T15:17:05.575Z,94247.42
2019-05-02T15:19:35.609Z,94235.73
2019-05-02T15:22:05.729Z,94229.59
2019-05-02T15:24:37.780Z,94228.97
2019-05-02T15:27:11.976Z,94226.70
2019-05-02T15:29:39.043Z,94234.03
2019-05-02T15:32:41.990Z,94227.09
2019-05-02T15:35:22.026Z,94227.52
2019-05-02T15:37:49.041Z,94218.46
2019-05-02T15:40:47.308Z,94231.75
2019-05-02T15:42:52.323Z,94213.05
2019-05-02T15:45:23.932Z,94226.44
2019-05-02T15:47:54.063Z,94217.78
2019-05-02T15:50:25.521Z,94215.41
2019-05-02T15:53:09.772Z,94214.28
2019-05-02T15:55:39.519Z,94221.52
2019-05-02T15:58:12.058Z,94222.77
2019-05-02T16:00:44.024Z,94219.41
2019-05-02T16:03:14.030Z,94222.44
2019-05-02T16:05:45.201Z,94222.16
2019-05-02T16:08:15.260Z,94225.19
2019-05-02T16:10:45.193Z,94216.73
2019-05-02T16:13:17.118Z,94211.59
2019-05-02T16:15:46.767Z,94218.48
2019-05-02T16:18:16.676Z,94213.36
2019-05-02T16:21:07.516Z,94210.05
2019-05-02T16:23:35.746Z,94213.26
2019-05-02T16:26:08.729Z,94215.13
2019-05-02T16:28:42.090Z,94220.83
2019-05-02T16:31:12.570Z,94210.66
2019-05-02T16:33:42.494Z,94212.02
2019-05-02T16:36:12.685Z,94216.77
2019-05-02T16:38:42.871Z,94214.81
2019-05-02T16:41:12.792Z,94212.39
2019-05-02T16:43:42.663Z,94220.00
2019-05-02T16:46:14.104Z,94213.70
2019-05-02T16:48:44.217Z,94211.89
2019-05-02T16:51:30.339Z,94217.55
2019-05-02T16:53:45.689Z,94218.91
2019-05-02T16:56:15.605Z,94219.23
2019-05-02T16:58:47.202Z,94227.32
2019-05-02T17:01:24.543Z,94224.16
2019-05-02T17:03:50.106Z,94223.42
2019-05-02T17:06:22.429Z,94226.09
2019-05-02T17:09:24.147Z,94227.83
2019-05-02T17:11:54.319Z,94234.97
2019-05-02T17:14:25.310Z,94230.44
2019-05-02T17:16:55.963Z,94232.58
2019-05-02T17:19:26.322Z,94237.92
2019-05-02T17:21:57.619Z,94237.42
2019-05-02T17:24:27.504Z,94236.77
2019-05-02T17:26:57.444Z,94238.89
2019-05-02T17:29:27.447Z,94246.91
2019-05-02T17:31:59.212Z,94247.80
2019-05-02T17:34:30.679Z,94247.10
2019-05-02T17:37:06.192Z,94241.84
2019-05-02T17:39:32.549Z,94241.86
2019-05-02T17:42:02.733Z,94255.17
2019-05-02T17:44:32.678Z,94263.23
2019-05-02T17:47:02.734Z,94283.29
2019-05-02T17:49:36.626Z,94301.77
2019-05-02T17:52:24.452Z,94280.23
2019-05-02T17:54:50.364Z,94288.55
2019-05-02T17:57:21.528Z,94318.03
2019-05-02T17:59:52.036Z,94300.80
2019-05-02T18:02:22.071Z,94298.92
2019-05-02T18:04:55.806Z,94303.55
2019-05-02T18:07:32.133Z,94308.67
2019-05-02T18:09:58.252Z,94304.05
2019-05-02T18:12:28.316Z,94314.79
2019-05-02T18:14:59.441Z,94317.15
2019-05-02T18:17:31.681Z,94319.85
2019-05-02T18:20:05.811Z,94330.66
2019-05-02T18:22:34.868Z,94318.30
2019-05-02T18:25:05.602Z,94331.97
2019-05-02T18:27:35.617Z,94326.57
2019-05-02T18:30:06.754Z,94327.85
2019-05-02T18:32:36.775Z,94328.02
2019-05-02T18:35:06.913Z,94333.30
2019-05-02T18:37:44.134Z,94329.84
2019-05-02T18:40:11.751Z,94330.30
2019-05-02T18:42:42.407Z,94334.62
2019-05-02T18:45:17.192Z,94336.39
2019-05-02T18:47:47.557Z,94341.94
2019-05-02T18:50:44.414Z,94351.94
2019-05-02T18:53:13.608Z,94353.27
2019-05-02T18:55:43.296Z,94357.85
2019-05-02T18:58:14.402Z,94361.86
2019-05-02T19:00:44.677Z,94387.92
2019-05-02T19:03:17.069Z,94366.27
2019-05-02T19:05:46.846Z,94371.31
2019-05-02T19:08:28.180Z,94378.28
2019-05-02T19:11:02.516Z,94371.59
2019-05-02T19:13:22.347Z,94383.87
2019-05-02T19:15:53.452Z,94384.59
2019-05-02T19:18:23.633Z,94397.88
2019-05-02T19:21:03.675Z,94400.53
2019-05-02T19:23:35.505Z,94417.55
2019-05-02T19:26:10.135Z,94399.45
2019-05-02T19:28:58.130Z,94401.02
2019-05-02T19:31:36.706Z,94404.45
2019-05-02T19:34:04.796Z,94409.06
2019-05-02T19:36:34.836Z,94416.38
2019-05-02T19:39:09.798Z,94411.70
2019-05-02T19:41:43.983Z,94411.19
2019-05-02T19:44:11.014Z,94413.34
2019-05-02T19:46:42.156Z,94412.52
2019-05-02T19:49:16.053Z,94406.69
2019-05-02T19:51:43.969Z,94414.70
2019-05-02T19:54:13.963Z,94421.19
2019-05-02T19:56:47.327Z,94416.19
2019-05-02T19:59:16.655Z,94415.02
2019-05-02T20:01:47.375Z,94424.94
2019-05-02T20:04:17.361Z,94425.65
2019-05-02T20:06:47.363Z,94425.20
2019-05-02T20:09:17.343Z,94425.30
2019-05-02T20:11:47.295Z,94429.13
2019-05-02T20:14:17.481Z,94429.64
2019-05-02T20:16:52.912Z,94435.89
2019-05-02T20:19:26.831Z,94436.03
2019-05-02T20:22:11.754Z,94441.28
2019-05-02T20:24:58.501Z,94444.77
2019-05-02T20:27:27.958Z,94440.86
2019-05-02T20:29:56.876Z,94444.06
2019-05-02T20:32:27.167Z,94450.52
2019-05-02T20:34:57.481Z,94447.34
2019-05-02T20:37:27.385Z,94463.69
2019-05-02T20:39:57.310Z,94457.31
2019-05-02T20:42:27.310Z,94469.17
2019-05-02T20:44:57.342Z,94467.30
2019-05-02T20:47:27.848Z,94475.52
2019-05-02T20:49:57.879Z,94470.45
2019-05-02T20:52:27.868Z,94475.14
2019-05-02T20:54:57.792Z,94474.42
2019-05-02T20:57:27.663Z,94484.61
2019-05-02T20:59:57.668Z,94485.30
2019-05-02T21:02:27.683Z,94483.97
2019-05-02T21:04:57.598Z,94485.98
2019-05-02T21:07:45.494Z,94491.98
2019-05-02T21:10:22.056Z,94486.55
2019-05-02T21:12:52.602Z,94499.31
2019-05-02T21:15:22.777Z,94493.41
2019-05-02T21:17:52.780Z,94494.33
2019-05-02T21:20:23.867Z,94487.53
2019-05-02T21:22:53.882Z,94486.70
2019-05-02T21:25:23.949Z,94493.32
2019-05-02T21:27:53.863Z,94493.33
2019-05-02T21:30:27.548Z,94487.95
2019-05-02T21:32:58.515Z,94489.67
2019-05-02T21:35:28.817Z,94495.84
2019-05-02T21:37:58.838Z,94492.49
2019-05-02T21:40:28.812Z,94495.41
2019-05-02T21:42:58.888Z,94512.39
2019-05-02T21:45:28.731Z,94522.66
2019-05-02T21:47:58.741Z,94524.02
2019-05-02T21:50:43.884Z,94531.64
2019-05-02T21:53:35.513Z,94530.70
2019-05-02T21:56:28.809Z,94519.47
2019-05-02T21:59:04.963Z,94541.69
2019-05-02T22:01:39.724Z,94546.09
2019-05-02T22:04:09.706Z,94530.27
2019-05-02T22:06:39.805Z,94537.60
2019-05-02T22:09:12.255Z,94536.91
2019-05-02T22:11:43.057Z,94533.13
2019-05-02T22:14:13.600Z,94531.66
2019-05-02T22:16:43.691Z,94537.23
2019-05-02T22:19:13.809Z,94538.86
2019-05-02T22:21:43.846Z,94532.47
2019-05-02T22:24:14.464Z,94539.75
2019-05-02T22:26:44.561Z,94537.31
2019-05-02T22:29:15.689Z,94533.64
2019-05-02T22:31:45.604Z,94539.46
2019-05-02T22:34:16.806Z,94537.77
2019-05-02T22:36:46.821Z,94534.63
2019-05-02T22:39:34.574Z,94541.53
2019-05-02T22:42:05.701Z,94540.06
2019-05-02T22:44:35.760Z,94543.39
2019-05-02T22:47:05.763Z,94537.76
2019-05-02T22:49:35.751Z,94543.75
2019-05-02T22:52:05.725Z,94540.06
2019-05-02T22:54:35.702Z,94541.25
2019-05-02T22:57:05.942Z,94537.40
2019-05-02T22:59:36.416Z,94536.71
2019-05-02T23:02:06.415Z,94532.19
2019-05-02T23:04:36.568Z,94529.44
2019-05-02T23:07:06.660Z,94524.93
2019-05-02T23:09:36.715Z,94526.75
2019-05-02T23:12:07.197Z,94518.80
2019-05-02T23:14:37.148Z,94523.40
2019-05-02T23:17:07.131Z,94520.63
2019-05-02T23:19:37.116Z,94514.47
2019-05-02T23:22:07.125Z,94518.39
2019-05-02T23:24:55.979Z,94514.34
2019-05-02T23:27:38.822Z,94518.44
2019-05-02T23:30:14.231Z,94518.78
2019-05-02T23:32:44.202Z,94518.56
2019-05-02T23:35:14.327Z,94516.78
2019-05-02T23:37:44.255Z,94519.14
2019-05-02T23:40:14.680Z,94521.00
2019-05-02T23:42:44.691Z,94512.11
2019-05-02T23:45:14.800Z,94504.28
2019-05-02T23:47:44.717Z,94506.27
2019-05-02T23:50:14.930Z,94509.01
2019-05-02T23:52:44.935Z,94499.17
2019-05-02T23:55:15.156Z,94511.61
2019-05-02T23:57:45.190Z,94490.33
